createdAt,value
2022-11-07T00:01:19.550Z,100248.41
2022-11-07T00:03:46.279Z,100253.72
2022-11-07T00:06:12.831Z,100254.63
2022-11-07T00:08:39.527Z,100248.53
2022-11-07T00:11:06.650Z,100251.16
2022-11-07T00:13:33.436Z,100252.88
2022-11-07T00:16:02.019Z,100262.53
2022-11-07T00:18:28.471Z,100275.56
2022-11-07T00:20:55.098Z,100277.31
2022-11-07T00:23:21.653Z,100272.97
2022-11-07T00:25:48.072Z,100275.59
2022-11-07T00:28:14.561Z,100279.91
2022-11-07T00:30:41.510Z,100277.19
2022-11-07T00:33:07.916Z,100282.44
2022-11-07T00:35:34.325Z,100288.56
2022-11-07T00:38:00.759Z,100291.28
2022-11-07T00:40:27.147Z,100290.38
2022-11-07T00:42:53.550Z,100294.75
2022-11-07T00:45:19.940Z,100299.97
2022-11-07T00:47:46.440Z,100295.66
2022-11-07T00:50:12.909Z,100295.69
2022-11-07T00:52:39.316Z,100290.47
2022-11-07T00:55:06.107Z,100294.88
2022-11-07T00:57:32.534Z,100291.50
2022-11-07T00:59:58.938Z,100294.16
2022-11-07T01:02:25.474Z,100300.34
2022-11-07T01:05:10.258Z,100295.13
2022-11-07T01:07:37.387Z,100287.31
2022-11-07T01:10:05.517Z,100298.69
2022-11-07T01:12:35.697Z,100293.50
2022-11-07T01:15:03.979Z,100296.19
2022-11-07T01:17:30.657Z,100303.25
2022-11-07T01:19:57.089Z,100301.59
2022-11-07T01:22:23.483Z,100292.94
2022-11-07T01:24:49.936Z,100299.13
2022-11-07T01:27:16.326Z,100300.91
2022-11-07T01:29:42.714Z,100301.88
2022-11-07T01:32:09.131Z,100303.66
2022-11-07T01:34:35.514Z,100295.03
2022-11-07T01:37:01.906Z,100302.88
2022-11-07T01:39:28.367Z,100295.09
2022-11-07T01:41:54.846Z,100292.50
2022-11-07T01:44:21.184Z,100293.41
2022-11-07T01:46:48.433Z,100296.94
2022-11-07T01:49:20.093Z,100299.50
2022-11-07T01:51:51.722Z,100295.22
2022-11-07T01:54:22.420Z,100303.09
2022-11-07T01:56:49.558Z,100290.91
2022-11-07T01:59:19.957Z,100293.59
2022-11-07T02:01:46.453Z,100289.25
2022-11-07T02:04:13.374Z,100291.91
2022-11-07T02:06:49.870Z,100279.72
2022-11-07T02:09:16.345Z,100283.28
2022-11-07T02:11:42.825Z,100287.63
2022-11-07T02:14:17.495Z,100290.22
2022-11-07T02:16:44.790Z,100291.94
2022-11-07T02:19:41.950Z,100284.03
2022-11-07T02:22:44.039Z,100299.63
2022-11-07T02:25:13.861Z,100302.22
2022-11-07T02:27:42.260Z,100297.00
2022-11-07T02:30:17.830Z,100289.13
2022-11-07T02:32:44.578Z,100291.69
2022-11-07T02:35:42.204Z,100302.22
2022-11-07T02:38:30.857Z,100294.44
2022-11-07T02:41:01.646Z,100291.91
2022-11-07T02:43:29.973Z,100297.13
2022-11-07T02:45:58.760Z,100284.97
2022-11-07T02:48:32.505Z,100293.63
2022-11-07T02:50:59.474Z,100296.22
2022-11-07T02:53:25.876Z,100303.22
2022-11-07T02:55:52.242Z,100291.03
2022-11-07T02:58:18.638Z,100298.94
2022-11-07T03:00:45.092Z,100297.22
2022-11-07T03:03:12.777Z,100293.78
2022-11-07T03:05:39.603Z,100299.94
2022-11-07T03:08:06.066Z,100298.28
2022-11-07T03:10:32.839Z,100296.56
2022-11-07T03:12:59.374Z,100306.22
2022-11-07T03:15:25.808Z,100306.25
2022-11-07T03:17:52.192Z,100308.03
2022-11-07T03:20:18.594Z,100303.69
2022-11-07T03:22:46.984Z,100308.03
2022-11-07T03:25:13.359Z,100308.03
2022-11-07T03:27:49.504Z,100312.38
2022-11-07T03:30:16.840Z,100316.75
2022-11-07T03:32:43.866Z,100316.84
2022-11-07T03:35:10.762Z,100319.47
2022-11-07T03:37:37.177Z,100311.69
2022-11-07T03:40:04.174Z,100309.06
2022-11-07T03:42:30.779Z,100312.59
2022-11-07T03:44:57.172Z,100309.16
2022-11-07T03:47:23.571Z,100310.03
2022-11-07T03:49:49.945Z,100317.88
2022-11-07T03:52:16.354Z,100313.56
2022-11-07T03:54:42.750Z,100321.38
2022-11-07T03:57:09.568Z,100320.50
2022-11-07T03:59:35.986Z,100313.50
2022-11-07T04:02:02.509Z,100323.97
2022-11-07T04:04:29.023Z,100332.69
2022-11-07T04:06:55.408Z,100324.91
2022-11-07T04:09:21.783Z,100323.16
2022-11-07T04:12:06.719Z,100330.97
2022-11-07T04:14:51.468Z,100332.69
2022-11-07T04:17:20.588Z,100331.84
2022-11-07T04:19:48.885Z,100330.13
2022-11-07T04:22:15.683Z,100329.25
2022-11-07T04:24:45.747Z,100330.16
2022-11-07T04:27:32.551Z,100325.84
2022-11-07T04:29:59.459Z,100326.72
2022-11-07T04:32:25.883Z,100328.47
2022-11-07T04:34:52.435Z,100333.69
2022-11-07T04:37:19.569Z,100338.06
2022-11-07T04:39:46.003Z,100333.75
2022-11-07T04:42:12.397Z,100331.13
2022-11-07T04:44:38.823Z,100327.72
2022-11-07T04:47:05.206Z,100336.47
2022-11-07T04:49:31.623Z,100329.63
2022-11-07T04:51:58.109Z,100329.63
2022-11-07T04:54:24.525Z,100334.00
2022-11-07T04:56:50.969Z,100324.44
2022-11-07T04:59:17.386Z,100327.06
2022-11-07T05:01:43.835Z,100332.31
2022-11-07T05:04:10.695Z,100327.06
2022-11-07T05:06:37.855Z,100329.63
2022-11-07T05:09:04.475Z,100320.94
2022-11-07T05:11:30.876Z,100326.13
2022-11-07T05:13:57.348Z,100323.47
2022-11-07T05:16:23.754Z,100323.47
2022-11-07T05:18:50.130Z,100323.47
2022-11-07T05:21:16.560Z,100316.53
2022-11-07T05:23:42.957Z,100320.91
2022-11-07T05:26:09.688Z,100318.31
2022-11-07T05:28:39.560Z,100319.19
2022-11-07T05:31:07.987Z,100320.06
2022-11-07T05:33:35.489Z,100321.78
2022-11-07T05:36:16.400Z,100317.44
2022-11-07T05:38:44.901Z,100322.63
2022-11-07T05:41:12.313Z,100329.59
2022-11-07T05:43:39.105Z,100326.97
2022-11-07T05:46:06.690Z,100335.69
2022-11-07T05:48:33.485Z,100335.63
2022-11-07T05:51:00.388Z,100336.53
2022-11-07T05:53:27.548Z,100337.34
2022-11-07T05:55:54.843Z,100345.16
2022-11-07T05:58:21.588Z,100335.53
2022-11-07T06:00:48.729Z,100345.00
2022-11-07T06:03:16.204Z,100346.75
2022-11-07T06:05:43.651Z,100337.13
2022-11-07T06:08:12.423Z,100346.69
2022-11-07T06:10:39.735Z,100344.88
2022-11-07T06:13:08.311Z,100338.72
2022-11-07T06:15:37.225Z,100339.56
2022-11-07T06:18:05.901Z,100344.75
2022-11-07T06:20:33.327Z,100343.84
2022-11-07T06:23:00.966Z,100347.28
2022-11-07T06:25:28.126Z,100353.38
2022-11-07T06:27:59.767Z,100350.72
2022-11-07T06:30:26.575Z,100354.19
2022-11-07T06:32:53.169Z,100356.75
2022-11-07T06:35:19.623Z,100354.09
2022-11-07T06:37:46.104Z,100360.13
2022-11-07T06:40:12.718Z,100355.75
2022-11-07T06:42:39.124Z,100364.44
2022-11-07T06:45:06.079Z,100365.16
2022-11-07T06:47:32.481Z,100370.41
2022-11-07T06:49:58.917Z,100355.56
2022-11-07T06:52:25.466Z,100369.34
2022-11-07T06:54:51.892Z,100364.97
2022-11-07T06:57:18.339Z,100371.03
2022-11-07T06:59:51.336Z,100367.44
2022-11-07T07:02:30.853Z,100363.09
2022-11-07T07:05:04.949Z,100372.69
2022-11-07T07:07:31.412Z,100364.81
2022-11-07T07:09:57.907Z,100366.53
2022-11-07T07:12:24.336Z,100370.91
2022-11-07T07:14:50.851Z,100378.59
2022-11-07T07:17:17.312Z,100386.41
2022-11-07T07:19:43.699Z,100383.75
2022-11-07T07:22:13.864Z,100396.69
2022-11-07T07:24:40.301Z,100383.63
2022-11-07T07:27:07.102Z,100374.03
2022-11-07T07:29:33.714Z,100385.19
2022-11-07T07:32:00.101Z,100390.31
2022-11-07T07:34:26.591Z,100397.16
2022-11-07T07:36:54.130Z,100394.50
2022-11-07T07:39:20.536Z,100396.16
2022-11-07T07:41:48.093Z,100400.50
2022-11-07T07:44:14.525Z,100402.13
2022-11-07T07:46:40.931Z,100400.41
2022-11-07T07:49:08.822Z,100400.41
2022-11-07T07:51:35.909Z,100402.09
2022-11-07T07:54:02.291Z,100405.56
2022-11-07T07:56:28.807Z,100405.50
2022-11-07T07:58:55.486Z,100400.13
2022-11-07T08:01:22.027Z,100415.84
2022-11-07T08:04:01.458Z,100409.72
2022-11-07T08:06:29.129Z,100415.81
2022-11-07T08:08:55.570Z,100412.22
2022-11-07T08:11:22.079Z,100416.53
2022-11-07T08:13:48.634Z,100414.81
2022-11-07T08:16:15.054Z,100420.91
2022-11-07T08:18:41.454Z,100421.78
2022-11-07T08:21:08.448Z,100430.50
2022-11-07T08:23:35.827Z,100432.16
2022-11-07T08:26:04.717Z,100433.88
2022-11-07T08:28:33.570Z,100436.38
2022-11-07T08:31:07.136Z,100439.84
2022-11-07T08:33:34.230Z,100433.69
2022-11-07T08:36:02.606Z,100431.91
2022-11-07T08:38:30.989Z,100439.63
2022-11-07T08:40:58.405Z,100444.00
2022-11-07T08:43:25.190Z,100449.28
2022-11-07T08:45:54.000Z,100444.06
2022-11-07T08:48:21.394Z,100449.31
2022-11-07T08:50:52.523Z,100445.84
2022-11-07T08:53:19.250Z,100450.09
2022-11-07T08:55:45.918Z,100444.78
2022-11-07T08:58:12.406Z,100451.63
2022-11-07T09:00:38.851Z,100447.25
2022-11-07T09:05:53.350Z,100447.84
2022-11-07T09:08:19.833Z,100448.63
2022-11-07T09:10:46.279Z,100440.63
2022-11-07T09:13:15.126Z,100446.63
2022-11-07T09:15:46.191Z,100445.72
2022-11-07T09:18:15.945Z,100452.66
2022-11-07T09:20:42.350Z,100445.53
2022-11-07T09:23:09.259Z,100447.28
2022-11-07T09:25:35.690Z,100448.81
2022-11-07T09:28:03.487Z,100448.78
2022-11-07T09:30:29.974Z,100452.25
2022-11-07T09:32:56.911Z,100452.19
2022-11-07T09:35:23.632Z,100459.06
2022-11-07T09:37:51.108Z,100459.81
2022-11-07T09:40:45.293Z,100466.59
2022-11-07T09:43:32.440Z,100475.06
2022-11-07T09:46:17.204Z,100483.53
2022-11-07T09:48:55.660Z,100494.09
2022-11-07T09:51:33.672Z,100495.00
2022-11-07T09:54:05.773Z,100498.66
2022-11-07T09:56:33.284Z,100505.72
2022-11-07T09:59:12.723Z,100499.72
2022-11-07T10:01:41.050Z,100500.75
2022-11-07T10:04:24.906Z,100505.19
2022-11-07T10:07:08.283Z,100507.09
2022-11-07T10:09:51.457Z,100503.63
2022-11-07T10:12:29.924Z,100504.53
2022-11-07T10:15:03.491Z,100502.84
2022-11-07T10:17:54.008Z,100515.00
2022-11-07T10:20:30.664Z,100514.06
2022-11-07T10:23:19.037Z,100515.88
2022-11-07T10:26:10.525Z,100513.09
2022-11-07T10:28:46.891Z,100528.06
2022-11-07T10:31:14.740Z,100518.53
2022-11-07T10:33:56.954Z,100523.72
2022-11-07T10:36:24.945Z,100511.44
2022-11-07T10:38:52.059Z,100509.63
2022-11-07T10:41:21.240Z,100504.25
2022-11-07T10:43:58.284Z,100503.44
2022-11-07T10:46:42.436Z,100502.44
2022-11-07T10:49:24.775Z,100493.56
2022-11-07T10:51:52.338Z,100498.59
2022-11-07T10:54:31.768Z,100495.09
2022-11-07T10:57:01.960Z,100494.13
2022-11-07T10:59:35.803Z,100497.63
2022-11-07T11:02:16.268Z,100500.28
2022-11-07T11:04:50.898Z,100496.72
2022-11-07T11:07:17.792Z,100501.94
2022-11-07T11:09:56.419Z,100492.22
2022-11-07T11:12:27.645Z,100496.56
2022-11-07T11:15:11.767Z,100502.50
2022-11-07T11:17:38.502Z,100496.41
2022-11-07T11:20:06.950Z,100489.25
2022-11-07T11:22:41.167Z,100495.44
2022-11-07T11:25:10.383Z,100487.47
2022-11-07T11:27:38.587Z,100488.34
2022-11-07T11:30:11.699Z,100489.13
2022-11-07T11:32:46.074Z,100496.09
2022-11-07T11:35:30.171Z,100496.78
2022-11-07T11:38:06.170Z,100487.91
2022-11-07T11:40:38.088Z,100488.72
2022-11-07T11:43:16.311Z,100490.31
2022-11-07T11:46:09.769Z,100485.94
2022-11-07T11:48:51.773Z,100481.44
2022-11-07T11:51:27.051Z,100477.94
2022-11-07T11:53:53.833Z,100478.00
2022-11-07T11:56:32.980Z,100480.50
2022-11-07T11:59:07.648Z,100477.75
2022-11-07T12:01:47.351Z,100485.50
2022-11-07T12:04:27.950Z,100487.91
2022-11-07T12:07:22.787Z,100486.72
2022-11-07T12:09:58.733Z,100480.09
2022-11-07T12:12:56.639Z,100482.78
2022-11-07T12:15:52.769Z,100487.06
2022-11-07T12:18:26.990Z,100485.91
2022-11-07T12:21:22.961Z,100483.78
2022-11-07T12:24:13.884Z,100470.63
2022-11-07T12:27:11.053Z,100466.91
2022-11-07T12:29:51.533Z,100464.09
2022-11-07T12:32:41.109Z,100459.41
2022-11-07T12:35:25.717Z,100467.84
2022-11-07T12:38:02.592Z,100456.53
2022-11-07T12:40:53.899Z,100463.06
2022-11-07T12:43:59.758Z,100462.22
2022-11-07T12:46:42.758Z,100462.84
2022-11-07T12:49:09.084Z,100464.38
2022-11-07T12:51:46.175Z,100454.84
2022-11-07T12:54:33.278Z,100459.91
2022-11-07T12:57:04.419Z,100459.81
2022-11-07T12:59:32.398Z,100467.72
2022-11-07T13:02:04.341Z,100465.75
2022-11-07T13:05:08.414Z,100459.81
2022-11-07T13:07:40.414Z,100469.56
2022-11-07T13:10:37.465Z,100466.28
2022-11-07T13:13:17.432Z,100468.19
2022-11-07T13:16:13.524Z,100463.38
2022-11-07T13:18:30.777Z,100478.50
2022-11-07T13:21:06.083Z,100477.56
2022-11-07T13:23:33.738Z,100469.97
2022-11-07T13:26:14.776Z,100458.41
2022-11-07T13:29:00.674Z,100467.22
2022-11-07T13:31:36.276Z,100464.75
2022-11-07T13:34:11.180Z,100462.59
2022-11-07T13:36:38.627Z,100465.28
2022-11-07T13:39:07.384Z,100465.44
2022-11-07T13:41:34.649Z,100459.50
2022-11-07T13:44:07.885Z,100468.81
2022-11-07T13:46:44.894Z,100462.97
2022-11-07T13:49:28.081Z,100477.00
2022-11-07T13:51:58.669Z,100465.84
2022-11-07T13:54:39.898Z,100468.84
2022-11-07T13:57:24.754Z,100473.25
2022-11-07T13:59:56.226Z,100462.97
2022-11-07T14:02:25.910Z,100457.88
2022-11-07T14:05:15.138Z,100463.06
2022-11-07T14:07:47.462Z,100461.34
2022-11-07T14:10:46.306Z,100458.44
2022-11-07T14:13:19.842Z,100461.38
2022-11-07T14:15:50.521Z,100466.72
2022-11-07T14:18:18.833Z,100460.75
2022-11-07T14:20:52.304Z,100458.25
2022-11-07T14:23:30.662Z,100469.28
2022-11-07T14:26:00.729Z,100464.94
2022-11-07T14:28:45.674Z,100464.50
2022-11-07T14:31:21.339Z,100462.59
2022-11-07T14:33:53.949Z,100456.28
2022-11-07T14:36:21.220Z,100456.41
2022-11-07T14:38:50.312Z,100456.72
2022-11-07T14:41:18.494Z,100459.25
2022-11-07T14:43:46.871Z,100459.69
2022-11-07T14:46:22.339Z,100457.41
2022-11-07T14:48:51.318Z,100456.69
2022-11-07T14:51:23.119Z,100458.78
2022-11-07T14:53:59.706Z,100470.22
2022-11-07T14:56:32.802Z,100457.13
2022-11-07T14:58:59.502Z,100462.19
2022-11-07T15:01:30.561Z,100459.56
2022-11-07T15:04:05.494Z,100461.47
2022-11-07T15:06:40.874Z,100454.56
2022-11-07T15:09:08.125Z,100459.91
2022-11-07T15:11:36.867Z,100460.81
2022-11-07T15:14:20.243Z,100458.84
2022-11-07T15:16:49.637Z,100454.56
2022-11-07T15:19:19.894Z,100445.03
2022-11-07T15:21:55.401Z,100445.22
2022-11-07T15:24:32.610Z,100457.69
2022-11-07T15:27:06.143Z,100461.34
2022-11-07T15:29:36.084Z,100449.31
2022-11-07T15:32:24.166Z,100447.72
2022-11-07T15:35:07.864Z,100460.13
2022-11-07T15:37:39.730Z,100458.53
2022-11-07T15:40:18.576Z,100462.97
2022-11-07T15:42:45.041Z,100473.50
2022-11-07T15:45:11.783Z,100477.03
2022-11-07T15:47:38.975Z,100476.25
2022-11-07T15:50:18.957Z,100479.84
2022-11-07T15:52:46.951Z,100483.28
2022-11-07T15:55:15.881Z,100481.56
2022-11-07T15:57:44.785Z,100479.06
2022-11-07T16:00:20.326Z,100485.25
2022-11-07T16:02:47.260Z,100487.00
2022-11-07T16:05:14.790Z,100495.75
2022-11-07T16:07:42.877Z,100492.94
2022-11-07T16:10:24.973Z,100497.22
2022-11-07T16:12:52.910Z,100496.28
2022-11-07T16:15:22.814Z,100485.72
2022-11-07T16:17:49.503Z,100491.91
2022-11-07T16:20:18.430Z,100495.47
2022-11-07T16:22:45.851Z,100494.72
2022-11-07T16:25:21.332Z,100499.22
2022-11-07T16:27:54.658Z,100507.03
2022-11-07T16:30:22.636Z,100503.63
2022-11-07T16:32:49.121Z,100501.78
2022-11-07T16:35:16.255Z,100499.28
2022-11-07T16:37:43.121Z,100501.78
2022-11-07T16:40:15.277Z,100498.91
2022-11-07T16:42:41.759Z,100509.47
2022-11-07T16:45:08.765Z,100508.66
2022-11-07T16:47:39.344Z,100514.69
2022-11-07T16:50:06.410Z,100506.81
2022-11-07T16:52:33.259Z,100495.38
2022-11-07T16:54:59.692Z,100504.13
2022-11-07T16:57:26.368Z,100502.34
2022-11-07T16:59:52.837Z,100504.94
2022-11-07T17:02:24.632Z,100512.81
2022-11-07T17:04:52.716Z,100505.78
2022-11-07T17:07:21.606Z,100511.09
2022-11-07T17:09:48.459Z,100511.94
2022-11-07T17:12:17.647Z,100516.41
2022-11-07T17:14:44.605Z,100512.06
2022-11-07T17:17:16.028Z,100516.47
2022-11-07T17:19:42.622Z,100503.31
2022-11-07T17:22:11.090Z,100503.41
2022-11-07T17:24:37.537Z,100513.91
2022-11-07T17:27:15.962Z,100508.72
2022-11-07T17:29:42.391Z,100514.88
2022-11-07T17:32:08.829Z,100514.88
2022-11-07T17:34:35.244Z,100507.91
2022-11-07T17:37:01.884Z,100515.84
2022-11-07T17:39:28.394Z,100514.13
2022-11-07T17:41:54.883Z,100514.00
2022-11-07T17:44:21.407Z,100521.00
2022-11-07T17:46:49.681Z,100525.50
2022-11-07T17:49:18.607Z,100528.16
2022-11-07T17:51:45.682Z,100528.00
2022-11-07T17:54:13.907Z,100533.22
2022-11-07T17:56:41.416Z,100529.69
2022-11-07T17:59:12.464Z,100528.06
2022-11-07T18:01:40.412Z,100533.16
2022-11-07T18:04:08.846Z,100524.41
2022-11-07T18:06:37.298Z,100526.06
2022-11-07T18:09:06.114Z,100535.66
2022-11-07T18:11:33.619Z,100538.22
2022-11-07T18:14:00.781Z,100528.63
2022-11-07T18:16:32.642Z,100517.31
2022-11-07T18:19:01.282Z,100512.00
2022-11-07T18:21:28.163Z,100518.22
2022-11-07T18:23:55.342Z,100515.56
2022-11-07T18:26:30.781Z,100515.34
2022-11-07T18:29:02.286Z,100520.59
2022-11-07T18:31:28.790Z,100520.59
2022-11-07T18:33:57.624Z,100516.16
2022-11-07T18:36:24.312Z,100516.97
2022-11-07T18:38:50.856Z,100516.97
2022-11-07T18:41:19.931Z,100521.31
2022-11-07T18:43:47.264Z,100528.47
2022-11-07T18:46:16.451Z,100516.34
2022-11-07T18:48:43.196Z,100513.72
2022-11-07T18:51:17.085Z,100521.56
2022-11-07T18:53:45.001Z,100518.06
2022-11-07T18:56:13.116Z,100518.94
2022-11-07T18:58:41.294Z,100512.06
2022-11-07T19:01:24.291Z,100517.25
2022-11-07T19:03:50.947Z,100513.63
2022-11-07T19:06:19.701Z,100518.06
2022-11-07T19:08:50.090Z,100509.31
2022-11-07T19:11:26.484Z,100519.66
2022-11-07T19:13:53.545Z,100519.78
2022-11-07T19:16:22.021Z,100525.84
2022-11-07T19:18:49.934Z,100525.94
2022-11-07T19:21:19.534Z,100532.22
2022-11-07T19:23:46.865Z,100534.81
2022-11-07T19:26:13.636Z,100527.84
2022-11-07T19:28:40.210Z,100540.13
2022-11-07T19:31:09.928Z,100538.38
2022-11-07T19:33:36.956Z,100537.56
2022-11-07T19:36:06.599Z,100538.41
2022-11-07T19:38:33.255Z,100536.81
2022-11-07T19:41:04.330Z,100540.25
2022-11-07T19:43:31.179Z,100532.34
2022-11-07T19:45:57.713Z,100536.56
2022-11-07T19:48:24.211Z,100534.00
2022-11-07T19:50:50.850Z,100527.78
2022-11-07T19:53:17.764Z,100539.28
2022-11-07T19:55:44.477Z,100540.13
2022-11-07T19:58:10.941Z,100538.28
2022-11-07T20:00:37.484Z,100539.28
2022-11-07T20:03:04.041Z,100534.03
2022-11-07T20:05:34.276Z,100540.19
2022-11-07T20:08:04.927Z,100540.19
2022-11-07T20:10:32.299Z,100538.53
2022-11-07T20:12:58.727Z,100534.84
2022-11-07T20:15:25.283Z,100541.00
2022-11-07T20:17:51.744Z,100525.28
2022-11-07T20:20:18.270Z,100543.84
2022-11-07T20:22:48.861Z,100535.31
2022-11-07T20:25:15.402Z,100532.81
2022-11-07T20:27:42.131Z,100538.06
2022-11-07T20:30:09.883Z,100538.19
2022-11-07T20:32:36.475Z,100539.91
2022-11-07T20:35:03.420Z,100541.78
2022-11-07T20:37:29.851Z,100535.69
2022-11-07T20:39:56.355Z,100548.81
2022-11-07T20:42:22.793Z,100545.47
2022-11-07T20:44:50.712Z,100546.56
2022-11-07T20:47:17.341Z,100543.94
2022-11-07T20:49:43.941Z,100539.59
2022-11-07T20:52:10.722Z,100531.81
2022-11-07T20:54:37.245Z,100534.47
2022-11-07T20:57:04.284Z,100543.41
2022-11-07T20:59:35.195Z,100541.75
2022-11-07T21:02:03.469Z,100538.41
2022-11-07T21:04:44.519Z,100543.75
2022-11-07T21:07:19.628Z,100544.59
2022-11-07T21:09:46.393Z,100548.13
2022-11-07T21:12:13.129Z,100542.94
2022-11-07T21:14:41.637Z,100549.19
2022-11-07T21:17:09.293Z,100547.41
2022-11-07T21:19:35.877Z,100544.00
2022-11-07T21:22:02.322Z,100548.41
2022-11-07T21:24:32.119Z,100547.63
2022-11-07T21:26:58.968Z,100550.31
2022-11-07T21:29:29.593Z,100545.16
2022-11-07T21:31:56.685Z,100545.22
2022-11-07T21:34:23.451Z,100545.25
2022-11-07T21:36:49.901Z,100547.03
2022-11-07T21:39:17.361Z,100541.78
2022-11-07T21:41:43.756Z,100533.91
2022-11-07T21:44:12.256Z,100530.31
2022-11-07T21:46:38.795Z,100523.31
2022-11-07T21:49:06.163Z,100521.53
2022-11-07T21:51:34.571Z,100527.72
2022-11-07T21:54:02.398Z,100533.91
2022-11-07T21:56:31.406Z,100520.84
2022-11-07T21:59:00.156Z,100518.38
2022-11-07T22:01:28.094Z,100521.03
2022-11-07T22:04:11.770Z,100521.09
2022-11-07T22:06:41.907Z,100524.59
2022-11-07T22:09:09.566Z,100522.00
2022-11-07T22:11:36.492Z,100521.97
2022-11-07T22:14:03.426Z,100513.19
2022-11-07T22:16:29.930Z,100512.38
2022-11-07T22:18:57.918Z,100508.91
2022-11-07T22:21:24.386Z,100498.41
2022-11-07T22:23:51.527Z,100505.47
2022-11-07T22:26:21.557Z,100506.41
2022-11-07T22:28:49.047Z,100507.38
2022-11-07T22:31:18.106Z,100498.72
2022-11-07T22:33:44.804Z,100496.19
2022-11-07T22:36:12.185Z,100502.31
2022-11-07T22:38:40.037Z,100491.06
2022-11-07T22:41:08.688Z,100498.13
2022-11-07T22:43:35.490Z,100492.00
2022-11-07T22:46:06.756Z,100497.31
2022-11-07T22:48:33.462Z,100488.63
2022-11-07T22:51:08.335Z,100492.22
2022-11-07T22:53:35.274Z,100486.13
2022-11-07T22:56:14.325Z,100480.88
2022-11-07T22:58:41.605Z,100480.94
2022-11-07T23:01:16.676Z,100483.59
2022-11-07T23:03:43.187Z,100477.53
2022-11-07T23:06:09.930Z,100484.50
2022-11-07T23:08:37.054Z,100482.78
2022-11-07T23:11:43.509Z,100483.72
2022-11-07T23:14:00.604Z,100484.66
2022-11-07T23:16:35.786Z,100481.22
2022-11-07T23:19:05.926Z,100484.75
2022-11-07T23:21:32.667Z,100478.69
2022-11-07T23:24:00.014Z,100477.84
2022-11-07T23:26:35.070Z,100469.97
2022-11-07T23:29:11.811Z,100470.03
2022-11-07T23:31:40.089Z,100471.78
2022-11-07T23:34:06.881Z,100467.44
2022-11-07T23:36:33.319Z,100471.84
2022-11-07T23:39:07.401Z,100469.25
2022-11-07T23:41:34.514Z,100472.78
2022-11-07T23:44:01.193Z,100464.06
2022-11-07T23:46:46.181Z,100469.25
2022-11-07T23:49:31.609Z,100461.50
2022-11-07T23:51:58.115Z,100464.97
2022-11-07T23:54:43.711Z,100462.34
2022-11-07T23:57:10.135Z,100465.88
2022-11-07T23:59:55.861Z,100450.09
